Terminal Aerodrome Forecast
Issued by NWS

Current Version | Previous Version | Graphics & Text | Print | Product List | Glossary On
Versions: 1 2 3 4 5 6 7 8 9 10 11 12 13 14 15 16 17 18 19 20 21 22 23 24 25
703
FTUS41 KRLX 220543
TAFCKB
TAF
KCKB 220543Z 2206/2306 11003KT P6SM OVC080
     FM221900 12007KT P6SM -RA OVC060
     FM222300 11006KT P6SM BKN050
     FM230400 12005KT 6SM -RA OVC035=

USA.gov is the U.S. government's official web portal to all federal, state and local government web resources and services.